createdAt,value
2022-08-22T00:00:16.813Z,28.40
2022-08-22T00:03:00.779Z,27.70
2022-08-22T00:03:07.733Z,28.90
2022-08-22T00:03:10.388Z,28.50
2022-08-22T00:03:17.380Z,28.40
2022-08-22T00:05:57.477Z,28.30
2022-08-22T00:08:34.896Z,28.30
2022-08-22T00:11:10.006Z,28.30
2022-08-22T00:13:43.823Z,28.20
2022-08-22T00:16:21.817Z,28.00
2022-08-22T00:18:55.357Z,27.70
2022-08-22T00:21:29.616Z,27.70
2022-08-22T00:24:06.278Z,27.60
2022-08-22T00:26:45.314Z,27.60
2022-08-22T00:29:17.535Z,27.60
2022-08-22T00:31:52.013Z,27.60
2022-08-22T00:34:31.029Z,27.60
2022-08-22T00:37:07.420Z,27.50
2022-08-22T00:39:40.679Z,27.50
2022-08-22T00:42:33.520Z,27.50
2022-08-22T00:45:32.261Z,27.50
2022-08-22T00:48:21.343Z,27.40
2022-08-22T00:51:10.981Z,27.50
2022-08-22T00:53:42.704Z,27.40
2022-08-22T00:56:35.232Z,27.40
2022-08-22T00:59:38.326Z,27.40
2022-08-22T01:02:19.051Z,27.30
2022-08-22T01:04:58.651Z,27.40
2022-08-22T01:07:38.102Z,27.30
2022-08-22T01:10:14.736Z,27.30
2022-08-22T01:13:12.906Z,27.20
2022-08-22T01:15:43.466Z,27.30
2022-08-22T01:18:50.280Z,27.20
2022-08-22T01:21:55.859Z,27.10
2022-08-22T01:25:26.065Z,27.20
2022-08-22T01:28:27.395Z,27.10
2022-08-22T01:31:39.055Z,27.10
2022-08-22T01:34:42.674Z,27.00
2022-08-22T01:37:43.515Z,27.00
2022-08-22T01:40:54.489Z,27.00
2022-08-22T01:43:59.419Z,26.90
2022-08-22T01:46:42.205Z,26.90
2022-08-22T01:49:19.062Z,26.90
2022-08-22T01:51:54.683Z,26.90
2022-08-22T01:54:31.272Z,26.90
2022-08-22T01:57:03.424Z,26.80
2022-08-22T01:59:42.380Z,26.80
2022-08-22T02:02:41.060Z,26.80
2022-08-22T02:05:20.283Z,26.70
2022-08-22T02:07:57.730Z,26.70
2022-08-22T02:10:43.678Z,26.70
2022-08-22T02:13:31.055Z,26.70
2022-08-22T02:16:09.892Z,26.70
2022-08-22T02:18:51.317Z,26.60
2022-08-22T02:21:25.655Z,26.60
2022-08-22T02:23:59.723Z,26.60
2022-08-22T02:26:38.979Z,26.60
2022-08-22T02:29:12.011Z,26.50
2022-08-22T02:31:45.501Z,26.50
2022-08-22T02:34:34.836Z,26.50
2022-08-22T02:37:11.743Z,26.50
2022-08-22T02:39:46.861Z,26.40
2022-08-22T02:42:23.652Z,26.40
2022-08-22T02:44:59.895Z,26.40
2022-08-22T02:47:35.914Z,26.40
2022-08-22T02:50:16.787Z,26.30
2022-08-22T02:52:57.764Z,26.30
2022-08-22T02:55:40.013Z,26.30
2022-08-22T02:58:15.663Z,26.30
2022-08-22T03:00:48.331Z,26.20
2022-08-22T03:03:22.691Z,26.20
2022-08-22T03:06:01.969Z,26.20
2022-08-22T03:08:33.601Z,26.10
2022-08-22T03:11:20.964Z,26.10
2022-08-22T03:13:57.102Z,26.10
2022-08-22T03:16:30.131Z,26.10
2022-08-22T03:19:05.504Z,26.00
2022-08-22T03:21:42.314Z,26.00
2022-08-22T03:24:16.714Z,26.00
2022-08-22T03:26:52.279Z,26.00
2022-08-22T03:29:25.598Z,25.90
2022-08-22T03:32:10.421Z,25.90
2022-08-22T03:34:39.659Z,25.90
2022-08-22T03:37:16.742Z,25.90
2022-08-22T03:39:58.861Z,25.90
2022-08-22T03:42:59.759Z,25.90
2022-08-22T03:45:49.489Z,25.90
2022-08-22T03:48:27.282Z,25.90
2022-08-22T03:51:30.092Z,25.90
2022-08-22T03:54:33.056Z,25.80
2022-08-22T03:57:37.811Z,25.80
2022-08-22T04:00:36.308Z,25.80
2022-08-22T04:03:41.855Z,25.80
2022-08-22T04:06:56.572Z,25.80
2022-08-22T04:09:52.929Z,25.80
2022-08-22T04:12:59.359Z,25.80
2022-08-22T04:15:45.852Z,25.80
2022-08-22T04:18:47.312Z,25.80
2022-08-22T04:21:53.706Z,25.80
2022-08-22T04:24:43.794Z,25.70
2022-08-22T04:27:23.643Z,25.70
2022-08-22T04:29:55.784Z,25.70
2022-08-22T04:32:36.091Z,25.70
2022-08-22T04:35:10.122Z,25.70
2022-08-22T04:37:46.319Z,25.70
2022-08-22T04:40:23.134Z,25.70
2022-08-22T04:42:55.817Z,25.70
2022-08-22T04:45:30.823Z,25.70
2022-08-22T04:48:07.153Z,25.70
2022-08-22T04:50:43.336Z,25.70
2022-08-22T04:53:26.614Z,25.70
2022-08-22T04:56:07.537Z,25.60
2022-08-22T04:58:46.795Z,25.70
2022-08-22T05:01:19.257Z,25.60
2022-08-22T05:03:53.815Z,25.60
2022-08-22T05:06:25.547Z,25.60
2022-08-22T05:08:54.254Z,25.60
2022-08-22T05:11:25.012Z,25.70
2022-08-22T05:13:56.899Z,25.70
2022-08-22T05:16:32.328Z,25.70
2022-08-22T05:19:05.833Z,25.70
2022-08-22T05:21:38.451Z,25.60
2022-08-22T05:24:10.583Z,25.40
2022-08-22T05:26:42.183Z,25.40
2022-08-22T05:29:12.043Z,25.40
2022-08-22T05:31:42.783Z,25.40
2022-08-22T05:34:17.207Z,25.40
2022-08-22T05:36:50.921Z,25.40
2022-08-22T05:39:21.875Z,25.40
2022-08-22T05:41:56.359Z,25.40
2022-08-22T05:44:27.234Z,25.50
2022-08-22T05:47:02.587Z,25.50
2022-08-22T05:49:38.946Z,25.50
2022-08-22T05:52:12.223Z,25.70
2022-08-22T05:54:49.541Z,25.80
2022-08-22T05:57:32.466Z,25.90
2022-08-22T06:00:08.768Z,26.00
2022-08-22T06:02:51.763Z,26.00
2022-08-22T06:05:25.781Z,26.00
2022-08-22T06:07:59.429Z,26.00
2022-08-22T06:10:32.584Z,25.90
2022-08-22T06:13:04.802Z,25.90
2022-08-22T06:15:45.632Z,26.00
2022-08-22T06:18:26.053Z,26.10
2022-08-22T06:20:58.932Z,26.20
2022-08-22T06:23:30.852Z,26.30
2022-08-22T06:26:01.344Z,26.40
2022-08-22T06:28:37.038Z,26.50
2022-08-22T06:31:06.615Z,26.50
2022-08-22T06:33:42.366Z,26.50
2022-08-22T06:36:31.886Z,26.50
2022-08-22T06:39:10.106Z,26.70
2022-08-22T06:41:42.411Z,26.70
2022-08-22T06:44:14.976Z,26.80
2022-08-22T06:46:47.503Z,26.80
2022-08-22T06:49:17.096Z,26.90
2022-08-22T06:51:47.815Z,27.00
2022-08-22T06:54:19.967Z,27.20
2022-08-22T06:56:51.460Z,27.30
2022-08-22T06:59:24.309Z,27.50
2022-08-22T07:01:57.007Z,27.60
2022-08-22T07:04:27.553Z,27.70
2022-08-22T07:07:00.740Z,27.80
2022-08-22T07:09:31.904Z,27.90
2022-08-22T07:12:02.916Z,28.00
2022-08-22T07:14:34.268Z,28.10
2022-08-22T07:17:05.069Z,28.20
2022-08-22T07:19:35.994Z,28.30
2022-08-22T07:22:14.900Z,28.40
2022-08-22T07:24:48.028Z,28.50
2022-08-22T07:27:38.403Z,28.60
2022-08-22T07:30:10.720Z,28.80
2022-08-22T07:32:48.112Z,28.90
2022-08-22T07:35:20.444Z,29.10
2022-08-22T07:37:57.753Z,29.20
2022-08-22T07:40:33.021Z,29.50
2022-08-22T07:43:08.531Z,29.70
2022-08-22T07:45:41.534Z,29.90
2022-08-22T07:48:25.602Z,30.00
2022-08-22T07:51:08.367Z,30.20
2022-08-22T07:53:43.039Z,30.30
2022-08-22T07:56:15.557Z,30.50
2022-08-22T07:58:46.502Z,30.60
2022-08-22T08:01:20.713Z,30.70
2022-08-22T08:03:54.953Z,30.90
2022-08-22T08:06:25.123Z,31.10
2022-08-22T08:08:55.829Z,31.30
2022-08-22T08:11:26.802Z,31.50
2022-08-22T08:13:59.033Z,31.80
2022-08-22T08:16:32.159Z,32.00
2022-08-22T08:19:02.575Z,32.10
2022-08-22T08:21:34.719Z,32.30
2022-08-22T08:24:07.552Z,32.50
2022-08-22T08:26:39.980Z,32.70
2022-08-22T08:29:08.287Z,32.90
2022-08-22T08:31:44.870Z,32.90
2022-08-22T08:34:19.670Z,33.10
2022-08-22T08:36:52.404Z,32.80
2022-08-22T08:39:28.624Z,32.70
2022-08-22T08:42:27.927Z,33.20
2022-08-22T08:45:23.365Z,34.00
2022-08-22T08:48:21.873Z,34.70
2022-08-22T08:51:04.163Z,35.20
2022-08-22T08:53:57.444Z,35.70
2022-08-22T08:56:37.003Z,36.20
2022-08-22T08:59:17.674Z,36.60
2022-08-22T09:05:47.267Z,37.30
2022-08-22T09:08:45.448Z,37.60
2022-08-22T09:11:52.488Z,37.90
2022-08-22T09:14:45.234Z,38.20
2022-08-22T09:17:39.043Z,38.60
2022-08-22T09:20:40.021Z,39.10
2022-08-22T09:23:53.332Z,39.50
2022-08-22T09:26:30.707Z,39.90
2022-08-22T09:29:07.198Z,40.30
2022-08-22T09:31:52.145Z,40.80
2022-08-22T09:34:28.630Z,41.30
2022-08-22T09:37:14.226Z,41.70
2022-08-22T09:39:53.355Z,42.10
2022-08-22T09:42:32.534Z,42.60
2022-08-22T09:45:42.928Z,43.20
2022-08-22T09:48:39.761Z,43.40
2022-08-22T09:51:32.614Z,43.30
2022-08-22T09:54:23.984Z,43.10
2022-08-22T09:57:08.203Z,42.70
2022-08-22T09:59:51.557Z,42.30
2022-08-22T10:02:34.480Z,42.00
2022-08-22T10:05:13.601Z,41.90
2022-08-22T10:08:14.718Z,41.50
2022-08-22T10:11:13.578Z,41.20
2022-08-22T10:13:57.351Z,41.40
2022-08-22T10:16:44.623Z,41.80
2022-08-22T10:19:21.203Z,42.40
2022-08-22T10:22:17.080Z,43.30
2022-08-22T10:24:53.874Z,44.30
2022-08-22T10:27:33.149Z,45.00
2022-08-22T10:30:09.181Z,45.60
2022-08-22T10:32:42.964Z,46.10
2022-08-22T10:35:21.006Z,46.60
2022-08-22T10:37:58.184Z,47.00
2022-08-22T10:40:31.009Z,47.20
2022-08-22T10:43:09.419Z,46.80
2022-08-22T10:45:41.270Z,47.10
2022-08-22T10:48:28.583Z,47.50
2022-08-22T10:51:08.725Z,48.00
2022-08-22T10:54:08.448Z,48.50
2022-08-22T10:56:43.860Z,48.70
2022-08-22T10:59:24.216Z,49.00
2022-08-22T11:02:05.868Z,48.40
2022-08-22T11:04:54.771Z,46.40
2022-08-22T11:07:48.539Z,45.00
2022-08-22T11:10:26.626Z,43.70
2022-08-22T11:13:12.848Z,42.90
2022-08-22T11:16:06.362Z,42.50
2022-08-22T11:19:02.128Z,42.20
2022-08-22T11:21:45.918Z,41.90
2022-08-22T11:24:53.937Z,41.60
2022-08-22T11:27:37.841Z,41.50
2022-08-22T11:30:11.002Z,41.70
2022-08-22T11:33:11.670Z,41.90
2022-08-22T11:35:47.445Z,42.00
2022-08-22T11:38:32.484Z,42.10
2022-08-22T11:41:06.622Z,42.20
2022-08-22T11:43:51.827Z,42.30
2022-08-22T11:46:29.324Z,42.30
2022-08-22T11:49:25.707Z,42.30
2022-08-22T11:52:04.256Z,42.30
2022-08-22T11:54:48.379Z,42.00
2022-08-22T11:57:30.707Z,42.00
2022-08-22T12:00:16.923Z,42.00
2022-08-22T12:03:26.245Z,42.10
2022-08-22T12:05:59.447Z,42.10
2022-08-22T12:09:00.926Z,41.90
2022-08-22T12:11:39.372Z,41.70
2022-08-22T12:14:17.541Z,41.60
2022-08-22T12:17:05.751Z,41.50
2022-08-22T12:20:05.611Z,41.60
2022-08-22T12:23:02.143Z,41.60
2022-08-22T12:25:51.684Z,41.70
2022-08-22T12:28:31.386Z,41.80
2022-08-22T12:31:12.359Z,41.90
2022-08-22T12:34:04.064Z,42.00
2022-08-22T12:37:00.501Z,42.00
2022-08-22T12:39:54.471Z,42.10
2022-08-22T12:42:32.435Z,42.10
2022-08-22T12:45:33.570Z,42.30
2022-08-22T12:48:14.442Z,42.30
2022-08-22T12:50:51.773Z,42.40
2022-08-22T12:53:46.601Z,42.50
2022-08-22T12:56:28.360Z,42.60
2022-08-22T12:59:19.731Z,42.60
2022-08-22T13:01:50.935Z,42.40
2022-08-22T13:04:32.740Z,42.20
2022-08-22T13:07:17.392Z,42.10
2022-08-22T13:09:49.904Z,42.30
2022-08-22T13:12:25.919Z,42.30
2022-08-22T13:15:00.703Z,42.30
2022-08-22T13:17:30.145Z,42.40
2022-08-22T13:20:08.505Z,42.40
2022-08-22T13:22:45.573Z,42.10
2022-08-22T13:25:25.954Z,41.70
2022-08-22T13:27:59.253Z,41.30
2022-08-22T13:30:33.349Z,41.00
2022-08-22T13:33:09.532Z,40.80
2022-08-22T13:35:51.658Z,40.80
2022-08-22T13:38:25.911Z,40.90
2022-08-22T13:40:56.900Z,41.10
2022-08-22T13:43:30.243Z,41.20
2022-08-22T13:46:01.885Z,41.20
2022-08-22T13:48:46.724Z,41.20
2022-08-22T13:51:21.773Z,41.20
2022-08-22T13:54:01.855Z,41.00
2022-08-22T13:56:36.757Z,40.90
2022-08-22T13:59:08.108Z,40.80
2022-08-22T14:01:46.993Z,40.70
2022-08-22T14:04:33.354Z,40.50
2022-08-22T14:07:25.478Z,40.30
2022-08-22T14:09:58.711Z,40.10
2022-08-22T14:12:33.708Z,39.90
2022-08-22T14:15:23.379Z,39.80
2022-08-22T14:18:03.370Z,39.50
2022-08-22T14:20:33.839Z,39.40
2022-08-22T14:23:08.029Z,39.30
2022-08-22T14:25:40.438Z,39.20
2022-08-22T14:28:21.532Z,39.10
2022-08-22T14:31:00.854Z,38.90
2022-08-22T14:33:34.988Z,38.80
2022-08-22T14:36:11.712Z,38.70
2022-08-22T14:38:48.100Z,38.50
2022-08-22T14:41:25.762Z,38.30
2022-08-22T14:43:59.105Z,38.00
2022-08-22T14:46:34.624Z,37.60
2022-08-22T14:49:24.928Z,37.30
2022-08-22T14:52:00.392Z,36.90
2022-08-22T14:54:30.911Z,36.70
2022-08-22T14:57:03.018Z,36.60
2022-08-22T14:59:45.195Z,36.50
2022-08-22T15:02:17.388Z,36.50
2022-08-22T15:04:50.852Z,36.60
2022-08-22T15:07:24.822Z,36.60
2022-08-22T15:09:55.847Z,36.60
2022-08-22T15:12:29.171Z,36.60
2022-08-22T15:15:00.303Z,36.60
2022-08-22T15:17:39.886Z,36.60
2022-08-22T15:20:28.568Z,36.50
2022-08-22T15:23:01.702Z,36.50
2022-08-22T15:25:34.215Z,36.50
2022-08-22T15:28:14.190Z,36.40
2022-08-22T15:30:49.582Z,36.40
2022-08-22T15:33:25.282Z,36.30
2022-08-22T15:35:55.360Z,36.30
2022-08-22T15:38:32.190Z,36.30
2022-08-22T15:41:31.191Z,36.20
2022-08-22T15:44:30.603Z,36.20
2022-08-22T15:47:10.825Z,36.20
2022-08-22T15:49:58.214Z,36.10
2022-08-22T15:52:29.853Z,36.10
2022-08-22T15:55:22.013Z,36.10
2022-08-22T15:58:04.511Z,36.10
2022-08-22T16:00:43.426Z,36.10
2022-08-22T16:03:24.858Z,35.90
2022-08-22T16:05:56.276Z,35.90
2022-08-22T16:08:29.624Z,35.80
2022-08-22T16:11:24.057Z,35.80
2022-08-22T16:14:18.266Z,35.70
2022-08-22T16:17:03.494Z,35.40
2022-08-22T16:19:32.768Z,35.10
2022-08-22T16:22:13.487Z,34.90
2022-08-22T16:25:06.705Z,34.80
2022-08-22T16:27:51.740Z,34.80
2022-08-22T16:30:33.308Z,34.80
2022-08-22T16:33:04.468Z,34.80
2022-08-22T16:36:25.756Z,34.90
2022-08-22T16:38:57.582Z,34.90
2022-08-22T16:41:29.962Z,34.90
2022-08-22T16:44:48.892Z,34.90
2022-08-22T16:47:20.398Z,34.90
2022-08-22T16:50:05.209Z,34.80
2022-08-22T16:53:08.612Z,34.80
2022-08-22T16:56:12.113Z,34.80
2022-08-22T16:59:19.558Z,34.70
2022-08-22T17:02:26.475Z,34.70
2022-08-22T17:05:10.849Z,34.70
2022-08-22T17:07:54.921Z,34.60
2022-08-22T17:10:39.499Z,34.60
2022-08-22T17:13:21.905Z,34.50
2022-08-22T17:16:08.004Z,34.60
2022-08-22T17:18:51.424Z,34.60
2022-08-22T17:21:26.844Z,34.50
2022-08-22T17:24:06.577Z,34.40
2022-08-22T17:26:55.303Z,34.40
2022-08-22T17:29:39.820Z,34.40
2022-08-22T17:32:17.774Z,34.30
2022-08-22T17:34:56.437Z,34.20
2022-08-22T17:37:36.869Z,34.20
2022-08-22T17:40:38.899Z,34.10
2022-08-22T17:43:48.873Z,34.10
2022-08-22T17:46:40.904Z,34.00
2022-08-22T17:49:23.103Z,33.90
2022-08-22T17:51:58.544Z,33.90
2022-08-22T17:54:36.007Z,33.80
2022-08-22T17:57:09.717Z,33.70
2022-08-22T17:59:47.327Z,33.70
2022-08-22T18:02:18.896Z,33.60
2022-08-22T18:04:52.695Z,33.60
2022-08-22T18:07:31.308Z,33.60
2022-08-22T18:10:06.032Z,33.50
2022-08-22T18:12:41.566Z,33.50
2022-08-22T18:15:20.119Z,33.30
2022-08-22T18:17:53.563Z,33.10
2022-08-22T18:20:28.632Z,33.00
2022-08-22T18:23:01.760Z,32.80
2022-08-22T18:25:39.623Z,32.60
2022-08-22T18:28:15.064Z,32.50
2022-08-22T18:31:02.751Z,32.40
2022-08-22T18:33:37.370Z,32.20
2022-08-22T18:36:12.262Z,32.10
2022-08-22T18:38:49.162Z,32.00
2022-08-22T18:41:31.360Z,31.90
2022-08-22T18:44:01.117Z,31.80
2022-08-22T18:46:45.062Z,31.70
2022-08-22T18:49:30.136Z,31.60
2022-08-22T18:52:21.503Z,31.40
2022-08-22T18:55:15.570Z,31.40
2022-08-22T18:58:03.141Z,31.30
2022-08-22T19:00:49.193Z,31.40
2022-08-22T19:03:36.265Z,31.40
2022-08-22T19:06:36.739Z,31.50
2022-08-22T19:09:39.836Z,31.50
2022-08-22T19:12:20.703Z,31.30
2022-08-22T19:15:16.185Z,31.30
2022-08-22T19:17:59.247Z,31.30
2022-08-22T19:20:48.559Z,31.30
2022-08-22T19:23:49.671Z,31.30
2022-08-22T19:26:33.760Z,31.20
2022-08-22T19:29:10.142Z,31.10
2022-08-22T19:31:52.243Z,30.90
2022-08-22T19:34:39.678Z,30.80
2022-08-22T19:37:31.077Z,30.70
2022-08-22T19:40:05.615Z,30.60
2022-08-22T19:42:40.896Z,30.60
2022-08-22T19:45:21.299Z,30.60
2022-08-22T19:48:00.334Z,30.50
2022-08-22T19:50:35.020Z,30.40
2022-08-22T19:53:37.655Z,30.40
2022-08-22T19:56:18.864Z,30.30
2022-08-22T19:59:03.116Z,30.40
2022-08-22T20:01:56.256Z,30.30
2022-08-22T20:04:58.156Z,30.20
2022-08-22T20:07:35.653Z,30.10
2022-08-22T20:10:16.163Z,30.10
2022-08-22T20:13:01.067Z,30.00
2022-08-22T20:15:32.296Z,30.10
2022-08-22T20:21:01.703Z,30.20
2022-08-22T20:23:32.648Z,30.20
2022-08-22T20:26:01.255Z,30.20
2022-08-22T20:28:48.869Z,30.20
2022-08-22T20:31:23.086Z,30.20
2022-08-22T20:33:56.352Z,30.20
2022-08-22T20:36:28.884Z,30.20
2022-08-22T20:39:01.274Z,30.10
2022-08-22T20:41:35.596Z,30.10
2022-08-22T20:44:12.380Z,30.10
2022-08-22T20:46:57.593Z,30.20
2022-08-22T20:49:30.319Z,30.10
2022-08-22T20:52:02.947Z,30.10
2022-08-22T20:54:33.628Z,30.10
2022-08-22T20:57:04.616Z,30.10
2022-08-22T20:59:37.120Z,30.00
2022-08-22T21:02:14.568Z,30.10
2022-08-22T21:04:49.744Z,30.00
2022-08-22T21:07:30.955Z,30.00
2022-08-22T21:10:28.698Z,30.00
2022-08-22T21:13:07.348Z,30.00
2022-08-22T21:15:38.826Z,30.00
2022-08-22T21:18:07.520Z,29.90
2022-08-22T21:20:38.518Z,29.80
2022-08-22T21:23:13.628Z,29.70
2022-08-22T21:25:56.649Z,29.50
2022-08-22T21:28:33.824Z,29.40
2022-08-22T21:31:13.088Z,29.30
2022-08-22T21:33:50.967Z,29.30
2022-08-22T21:36:22.197Z,29.20
2022-08-22T21:38:56.056Z,29.10
2022-08-22T21:41:30.141Z,29.00
2022-08-22T21:44:17.496Z,29.00
2022-08-22T21:46:46.108Z,29.00
2022-08-22T21:49:23.095Z,29.10
2022-08-22T21:51:51.903Z,29.20
2022-08-22T21:54:23.447Z,29.20
2022-08-22T21:56:53.060Z,29.20
2022-08-22T21:59:24.993Z,29.20
2022-08-22T22:01:53.799Z,29.30
2022-08-22T22:04:23.724Z,29.30
2022-08-22T22:06:51.920Z,29.30
2022-08-22T22:09:21.618Z,29.30
2022-08-22T22:11:50.225Z,29.30
2022-08-22T22:14:18.294Z,29.30
2022-08-22T22:16:46.421Z,29.30
2022-08-22T22:19:15.173Z,29.30
2022-08-22T22:21:43.275Z,29.30
2022-08-22T22:24:11.355Z,29.30
2022-08-22T22:26:40.913Z,29.20
2022-08-22T22:29:10.711Z,29.20
2022-08-22T22:31:38.616Z,29.30
2022-08-22T22:34:06.843Z,29.20
2022-08-22T22:36:35.596Z,29.20
2022-08-22T22:39:05.571Z,29.20
2022-08-22T22:41:33.747Z,29.20
2022-08-22T22:44:03.266Z,29.20
2022-08-22T22:46:31.299Z,29.20
2022-08-22T22:48:59.403Z,29.20
2022-08-22T22:51:27.654Z,29.20
2022-08-22T22:53:57.233Z,29.10
2022-08-22T22:56:25.148Z,29.10
2022-08-22T22:58:59.026Z,29.10
2022-08-22T23:01:35.943Z,29.10
2022-08-22T23:04:05.928Z,29.10
2022-08-22T23:06:34.373Z,29.10
2022-08-22T23:09:02.544Z,29.10
2022-08-22T23:11:31.740Z,29.10
2022-08-22T23:13:59.840Z,29.10
2022-08-22T23:16:32.940Z,29.10
2022-08-22T23:19:09.055Z,29.00
2022-08-22T23:21:37.276Z,29.00
2022-08-22T23:24:06.574Z,29.00
2022-08-22T23:26:34.795Z,29.00
2022-08-22T23:29:06.141Z,29.00
2022-08-22T23:31:36.509Z,29.00
2022-08-22T23:34:09.100Z,29.00
2022-08-22T23:36:38.315Z,28.90
2022-08-22T23:39:08.856Z,28.90
2022-08-22T23:41:38.046Z,28.80
2022-08-22T23:44:08.481Z,28.80
2022-08-22T23:46:42.509Z,28.80
2022-08-22T23:49:12.839Z,28.80
2022-08-22T23:51:41.880Z,28.80
2022-08-22T23:54:10.000Z,28.80
2022-08-22T23:56:40.744Z,28.80
2022-08-22T23:59:11.597Z,28.80
